Time;durP1;ratioP1;P1;durP2;ratioP2;P2;SDS_P1;SDS_P2;PMS_P1;PMS_P2;Temp;Humidity;BMP_temperature;BMP_pressure;BME280_temperature;BME280_humidity;BME280_pressure;Samples;Min_cycle;Max_cycle;Signal;HPM_P1;HPM_P2
2021/09/08 00:01:03;;;;;;;10.25;3.63;;;23.50;82.90;;;;;;5054362;28;20029;-79
2021/09/08 00:03:28;;;;;;;9.63;3.60;;;23.30;83.70;;;;;;5055612;28;20029;-79
2021/09/08 00:05:54;;;;;;;7.47;3.40;;;23.00;85.10;;;;;;5055155;28;20049;-79
2021/09/08 00:08:21;;;;;;;7.53;3.65;;;23.10;85.20;;;;;;5054291;28;20108;-79
2021/09/08 00:10:47;;;;;;;7.88;3.38;;;23.20;83.90;;;;;;5054195;28;20483;-79
2021/09/08 00:13:13;;;;;;;8.82;3.65;;;23.30;83.30;;;;;;5055477;28;20105;-79
2021/09/08 00:15:39;;;;;;;7.90;3.67;;;23.30;83.20;;;;;;5055372;28;20036;-79
2021/09/08 00:18:05;;;;;;;7.47;3.15;;;23.30;83.10;;;;;;5055382;28;20029;-79
2021/09/08 00:20:31;;;;;;;7.88;3.83;;;23.10;84.50;;;;;;5053989;28;20036;-79
2021/09/08 00:22:56;;;;;;;9.50;3.67;;;22.90;84.30;;;;;;5055251;28;20024;-80
2021/09/08 00:25:22;;;;;;;7.93;3.70;;;23.10;85.20;;;;;;5055091;28;20021;-79
2021/09/08 00:27:48;;;;;;;8.50;3.78;;;23.20;85.60;;;;;;5055113;28;20081;-79
2021/09/08 00:30:14;;;;;;;9.40;3.80;;;23.00;86.30;;;;;;5055218;28;20049;-79
2021/09/08 00:32:40;;;;;;;8.85;3.67;;;22.90;87.00;;;;;;5055354;28;20094;-79
2021/09/08 00:35:06;;;;;;;10.80;3.88;;;22.80;83.10;;;;;;5055439;28;20019;-80
2021/09/08 00:37:32;;;;;;;10.95;3.90;;;22.80;81.00;;;;;;5054995;28;20091;-80
2021/09/08 00:39:58;;;;;;;8.02;3.50;;;22.70;81.10;;;;;;5055200;28;20056;-79
2021/09/08 00:42:24;;;;;;;7.93;3.53;;;22.80;85.70;;;;;;5054845;28;20036;-79
2021/09/08 00:44:50;;;;;;;8.57;3.80;;;23.00;86.10;;;;;;5054855;28;20013;-79
2021/09/08 00:47:17;;;;;;;8.77;3.83;;;23.20;86.20;;;;;;5054824;28;20051;-79
2021/09/08 00:49:44;;;;;;;10.90;4.10;;;23.00;86.60;;;;;;5054780;28;20521;-78
2021/09/08 00:52:12;;;;;;;8.07;3.88;;;22.80;87.10;;;;;;5054694;28;20481;-79
2021/09/08 00:54:38;;;;;;;9.93;4.13;;;22.50;89.20;;;;;;5054676;28;20021;-78
2021/09/08 00:57:07;;;;;;;10.35;3.97;;;22.20;90.10;;;;;;5054550;28;20025;-78
2021/09/08 00:59:34;;;;;;;8.90;3.90;;;22.20;90.40;;;;;;5054495;28;20025;-79
2021/09/08 01:02:04;;;;;;;7.53;3.63;;;22.20;90.60;;;;;;5054460;28;20039;-79
2021/09/08 01:04:31;;;;;;;10.65;3.78;;;22.40;90.50;;;;;;5054262;28;20045;-79
2021/09/08 01:07:04;;;;;;;10.55;4.20;;;22.40;90.50;;;;;;5054415;28;20031;-79
2021/09/08 01:09:30;;;;;;;11.10;3.85;;;22.30;85.40;;;;;;5054677;28;20028;-79
2021/09/08 01:11:56;;;;;;;7.63;3.90;;;22.40;85.00;;;;;;5054658;28;20025;-79
2021/09/08 01:14:22;;;;;;;10.30;3.90;;;22.50;83.30;;;;;;5052957;28;20497;-79
2021/09/08 01:16:57;;;;;;;8.38;3.78;;;22.60;82.80;;;;;;5054084;28;20045;-79
2021/09/08 01:19:24;;;;;;;12.27;4.30;;;22.50;85.20;;;;;;5054394;28;20062;-79
2021/09/08 01:21:50;;;;;;;11.80;3.92;;;22.50;82.60;;;;;;5052783;28;20025;-79
2021/09/08 01:24:16;;;;;;;9.52;4.30;;;22.50;82.30;;;;;;5054030;28;20017;-80
2021/09/08 01:26:44;;;;;;;11.00;3.92;;;22.50;82.20;;;;;;5052769;28;20547;-79
2021/09/08 01:29:10;;;;;;;10.65;4.00;;;22.60;81.70;;;;;;5053987;28;20100;-79
2021/09/08 01:31:36;;;;;;;7.85;3.90;;;22.50;82.70;;;;;;5054022;28;20104;-79
2021/09/08 01:34:06;;;;;;;7.75;3.78;;;22.60;85.60;;;;;;5052642;28;20028;-80
2021/09/08 01:36:40;;;;;;;10.23;4.20;;;22.60;86.10;;;;;;5053904;28;20033;-80
2021/09/08 01:39:06;;;;;;;9.43;3.58;;;22.90;87.60;;;;;;5053993;28;20103;-79
2021/09/08 01:41:32;;;;;;;7.43;3.35;;;23.00;88.50;;;;;;5052456;28;20106;-79
2021/09/08 01:43:58;;;;;;;7.90;3.38;;;22.80;89.40;;;;;;5053701;28;20473;-79
2021/09/08 01:46:23;;;;;;;8.07;3.90;;;22.60;90.00;;;;;;5052419;28;20079;-79
2021/09/08 01:48:50;;;;;;;12.20;4.28;;;22.30;90.30;;;;;;5052357;28;20017;-79
2021/09/08 01:51:16;;;;;;;11.02;4.10;;;22.10;90.50;;;;;;5052326;28;20500;-79
2021/09/08 01:53:42;;;;;;;7.88;4.20;;;22.10;87.00;;;;;;5053632;28;20025;-79
2021/09/08 01:56:08;;;;;;;7.50;3.53;;;22.30;88.40;;;;;;5053590;28;20028;-79
2021/09/08 01:58:36;;;;;;;10.10;3.80;;;22.50;90.30;;;;;;5053501;28;20033;-78
2021/09/08 02:01:03;;;;;;;8.00;3.80;;;22.50;90.70;;;;;;5053380;28;20032;-79
2021/09/08 02:03:29;;;;;;;9.27;3.83;;;22.60;90.80;;;;;;5053584;28;20027;-79
2021/09/08 02:05:54;;;;;;;10.25;4.30;;;22.30;90.20;;;;;;5052989;28;20126;-79
2021/09/08 02:08:20;;;;;;;8.48;4.32;;;22.10;88.50;;;;;;5053457;28;20079;-79
2021/09/08 02:10:46;;;;;;;9.20;4.55;;;22.20;87.40;;;;;;5053335;28;20488;-79
2021/09/08 02:13:12;;;;;;;8.02;4.20;;;22.20;86.80;;;;;;5052027;28;20485;-78
2021/09/08 02:15:37;;;;;;;8.85;4.43;;;22.30;85.50;;;;;;5051977;28;20052;-79
2021/09/08 02:18:04;;;;;;;9.70;4.32;;;22.10;86.40;;;;;;5053284;28;20116;-79
2021/09/08 02:20:29;;;;;;;10.65;4.10;;;22.00;86.50;;;;;;5052517;28;20032;-79
2021/09/08 02:22:55;;;;;;;11.15;4.30;;;22.00;86.20;;;;;;5051882;28;20103;-79
2021/09/08 02:25:21;;;;;;;11.55;4.22;;;22.00;85.80;;;;;;5051774;28;20033;-79
2021/09/08 02:27:47;;;;;;;8.90;4.25;;;22.10;85.60;;;;;;5053202;28;20073;-78
2021/09/08 02:30:13;;;;;;;8.93;3.88;;;22.20;84.90;;;;;;5053465;28;20377;-79
2021/09/08 02:32:39;;;;;;;8.27;4.03;;;22.40;84.90;;;;;;5053026;28;20029;-79
2021/09/08 02:35:06;;;;;;;16.02;4.10;;;22.50;86.70;;;;;;5053328;28;20100;-78
2021/09/08 02:37:32;;;;;;;8.27;4.20;;;22.30;90.30;;;;;;5051753;28;20489;-79
2021/09/08 02:39:58;;;;;;;8.98;4.20;;;22.40;90.70;;;;;;5052976;28;20022;-79
2021/09/08 02:42:23;;;;;;;8.25;3.92;;;22.00;90.90;;;;;;5051567;28;20032;-79
2021/09/08 02:44:49;;;;;;;8.85;4.40;;;21.80;89.60;;;;;;5053003;28;20025;-79
2021/09/08 02:47:16;;;;;;;8.23;3.80;;;21.90;90.20;;;;;;5052943;28;20035;-79
2021/09/08 02:49:42;;;;;;;11.15;4.20;;;21.70;90.50;;;;;;5052901;28;20041;-79
2021/09/08 02:52:08;;;;;;;11.50;4.10;;;21.80;90.60;;;;;;5052894;28;20025;-79
2021/09/08 02:54:35;;;;;;;9.25;4.45;;;21.70;90.80;;;;;;5052987;28;20025;-79
2021/09/08 02:57:01;;;;;;;10.55;4.13;;;21.60;91.40;;;;;;5052887;28;20027;-79
2021/09/08 02:59:27;;;;;;;9.25;3.85;;;21.60;91.20;;;;;;5053408;28;20124;-79
2021/09/08 03:01:53;;;;;;;7.47;3.88;;;21.60;91.00;;;;;;5052818;28;20500;-79
2021/09/08 03:04:19;;;;;;;8.70;4.32;;;21.70;90.80;;;;;;5052614;28;20124;-79
2021/09/08 03:06:48;;;;;;;9.18;4.50;;;21.90;90.30;;;;;;5052730;28;20104;-79
2021/09/08 03:09:14;;;;;;;8.10;4.05;;;21.90;89.80;;;;;;5052681;28;20031;-79
2021/09/08 03:11:40;;;;;;;8.60;4.15;;;22.10;90.00;;;;;;5051341;28;20484;-79
2021/09/08 03:14:06;;;;;;;10.10;4.07;;;22.20;89.50;;;;;;5052661;28;20040;-79
2021/09/08 03:16:32;;;;;;;9.43;4.60;;;22.20;88.50;;;;;;5052786;28;20462;-79
2021/09/08 03:18:58;;;;;;;11.52;4.68;;;22.20;87.60;;;;;;5051374;28;20025;-79
2021/09/08 03:21:23;;;;;;;8.32;4.13;;;22.20;87.10;;;;;;5052651;28;20025;-79
2021/09/08 03:23:49;;;;;;;8.50;4.22;;;22.30;87.20;;;;;;5052654;28;20112;-79
2021/09/08 03:26:15;;;;;;;11.18;4.38;;;22.40;87.70;;;;;;5052548;28;20110;-79
2021/09/08 03:28:41;;;;;;;9.65;3.55;;;22.20;90.20;;;;;;5052611;28;20385;-79
2021/09/08 03:31:06;;;;;;;12.80;4.10;;;22.20;91.10;;;;;;5051709;28;20515;-79
2021/09/08 03:33:32;;;;;;;9.20;4.03;;;21.80;92.10;;;;;;5056210;28;20024;-79
2021/09/08 03:35:58;;;;;;;8.93;4.05;;;21.70;92.80;;;;;;5054909;28;20031;-79
2021/09/08 03:38:24;;;;;;;9.20;4.00;;;21.60;92.90;;;;;;5054861;28;20037;-79
2021/09/08 03:40:50;;;;;;;11.55;4.25;;;21.40;93.40;;;;;;5056097;28;20056;-79
2021/09/08 03:43:16;;;;;;;7.60;4.10;;;21.40;93.30;;;;;;5056060;28;20021;-79
2021/09/08 03:45:42;;;;;;;11.27;4.75;;;21.50;93.20;;;;;;5055980;28;20474;-79
2021/09/08 03:48:08;;;;;;;9.73;4.47;;;20.90;94.20;;;;;;5054677;28;20079;-79
2021/09/08 03:50:34;;;;;;;11.25;4.90;;;20.90;95.30;;;;;;5056125;28;20025;-79
2021/09/08 03:52:59;;;;;;;8.35;4.45;;;20.90;94.80;;;;;;5055866;28;20036;-79
2021/09/08 03:55:25;;;;;;;8.77;4.13;;;20.80;95.10;;;;;;5055772;28;20021;-79
2021/09/08 03:57:51;;;;;;;9.70;4.60;;;21.00;95.30;;;;;;5055737;28;20090;-80
2021/09/08 04:00:17;;;;;;;10.45;4.38;;;20.90;94.90;;;;;;5055738;28;20430;-79
2021/09/08 04:02:42;;;;;;;9.00;4.20;;;21.10;94.50;;;;;;5054418;28;20021;-79
2021/09/08 04:05:09;;;;;;;11.38;4.80;;;21.10;94.70;;;;;;5055453;28;20045;-79
2021/09/08 04:07:35;;;;;;;8.63;4.60;;;21.00;94.60;;;;;;5055960;28;20025;-79
2021/09/08 04:10:01;;;;;;;9.85;5.30;;;20.90;95.30;;;;;;5055526;28;20017;-79
2021/09/08 04:12:26;;;;;;;9.60;4.80;;;20.90;95.60;;;;;;5055439;28;20052;-79
2021/09/08 04:14:53;;;;;;;12.07;4.97;;;20.80;96.20;;;;;;5054155;28;20032;-80
2021/09/08 04:17:19;;;;;;;12.05;4.35;;;20.90;95.70;;;;;;5055634;28;20422;-79
2021/09/08 04:19:45;;;;;;;11.13;4.88;;;20.90;95.90;;;;;;5055365;28;20432;-79
2021/09/08 04:22:11;;;;;;;11.80;4.90;;;20.70;96.40;;;;;;5055307;28;20029;-79
2021/09/08 04:24:37;;;;;;;11.90;5.10;;;20.70;96.80;;;;;;5055465;28;20516;-79
2021/09/08 04:27:03;;;;;;;10.25;4.90;;;20.90;96.70;;;;;;5055168;28;20025;-79
2021/09/08 04:29:28;;;;;;;11.80;5.20;;;20.70;97.10;;;;;;5053859;28;20067;-79
2021/09/08 04:31:54;;;;;;;13.57;5.03;;;20.30;98.30;;;;;;5055159;28;20025;-79
2021/09/08 04:34:20;;;;;;;;;;;20.00;99.40;;;;;;5054181;28;20025;-79
2021/09/08 04:36:46;;;;;;;16.95;8.00;;;19.80;99.90;;;;;;5055020;28;19904;-78
2021/09/08 04:39:11;;;;;;;;;;;19.90;99.90;;;;;;5055350;28;20021;-78
2021/09/08 04:41:37;;;;;;;17.08;9.85;;;20.00;99.90;;;;;;5055104;28;19959;-78
2021/09/08 04:44:03;;;;;;;;;;;20.00;99.90;;;;;;5055033;28;20052;-78
2021/09/08 04:46:29;;;;;;;17.85;11.02;;;20.20;99.90;;;;;;5053529;28;19955;-79
2021/09/08 04:48:55;;;;;;;19.38;11.48;;;20.40;99.90;;;;;;5054829;28;20438;-78
2021/09/08 04:51:21;;;;;;;15.80;10.50;;;20.50;99.90;;;;;;5054920;28;20025;-79
2021/09/08 04:53:47;;;;;;;16.05;10.00;;;20.60;99.90;;;;;;5054686;28;20482;-79
2021/09/08 04:56:13;;;;;;;;;;;20.80;99.90;;;;;;5053763;28;20049;-78
2021/09/08 04:58:39;;;;;;;12.23;7.47;;;20.80;99.90;;;;;;5053318;28;19912;-78
2021/09/08 05:01:04;;;;;;;14.55;6.80;;;21.00;99.90;;;;;;5053259;28;20032;-79
2021/09/08 05:03:32;;;;;;;11.70;5.95;;;20.90;99.90;;;;;;5054500;28;20029;-79
2021/09/08 05:05:58;;;;;;;8.85;3.20;;;21.00;99.90;;;;;;5052862;28;20571;-78
2021/09/08 05:08:24;;;;;;;11.15;2.78;;;21.10;99.90;;;;;;5054341;28;20033;-79
2021/09/08 05:10:50;;;;;;;5.57;2.13;;;20.70;99.90;;;;;;5054291;28;20393;-79
2021/09/08 05:13:15;;;;;;;;;;;20.50;99.90;;;;;;5054834;28;20044;-78
2021/09/08 05:15:41;;;;;;;6.03;1.90;;;20.60;99.90;;;;;;5053095;28;19963;-79
2021/09/08 05:18:07;;;;;;;4.45;1.80;;;20.60;99.90;;;;;;5054295;28;20067;-78
2021/09/08 05:20:32;;;;;;;;;;;20.20;99.90;;;;;;5054675;28;20053;-78
2021/09/08 05:22:58;;;;;;;7.25;2.00;;;19.90;99.90;;;;;;5054406;28;20490;-78
2021/09/08 05:25:24;;;;;;;;;;;19.90;99.90;;;;;;5054728;28;20017;-79
2021/09/08 05:27:50;;;;;;;23.25;4.13;;;20.00;99.90;;;;;;5054404;28;19995;-79
2021/09/08 05:30:16;;;;;;;20.35;4.20;;;20.20;99.90;;;;;;5053981;28;20040;-79
2021/09/08 05:32:41;;;;;;;12.23;2.33;;;20.20;99.90;;;;;;5052660;28;20021;-79
2021/09/08 05:35:12;;;;;;;11.93;3.20;;;20.00;99.90;;;;;;5053976;28;20032;-79
2021/09/08 05:37:39;;;;;;;12.70;2.50;;;20.00;99.90;;;;;;5054201;28;20378;-79
2021/09/08 05:40:07;;;;;;;10.23;2.80;;;20.00;99.90;;;;;;5053905;28;20493;-79
2021/09/08 05:42:32;;;;;;;9.90;2.25;;;20.10;99.90;;;;;;5052473;28;20481;-79
2021/09/08 05:44:58;;;;;;;7.47;2.25;;;20.10;99.90;;;;;;5053721;28;20032;-79
2021/09/08 05:47:24;;;;;;;9.57;2.38;;;20.10;99.90;;;;;;5053764;28;20017;-78
2021/09/08 05:49:49;;;;;;;11.32;2.45;;;19.90;99.90;;;;;;5053887;28;20032;-78
2021/09/08 05:52:15;;;;;;;9.43;2.28;;;19.60;99.90;;;;;;5053749;28;20025;-79
2021/09/08 05:54:41;;;;;;;;;;;19.60;99.90;;;;;;5052138;28;20032;-81
2021/09/08 05:57:06;;;;;;;11.25;2.30;;;19.70;99.90;;;;;;5052167;28;20384;-80
2021/09/08 05:59:32;;;;;;;10.45;2.63;;;19.90;99.90;;;;;;5053551;28;20017;-81
2021/09/08 06:01:58;;;;;;;8.98;1.98;;;20.10;99.90;;;;;;5052149;28;20083;-81
2021/09/08 06:04:24;;;;;;;8.77;2.40;;;20.30;99.90;;;;;;5053225;28;20103;-80
2021/09/08 06:06:49;;;;;;;;;;;20.50;99.90;;;;;;5053863;28;20028;-80
2021/09/08 06:09:15;;;;;;;6.32;2.08;;;20.40;99.90;;;;;;5053360;28;20431;-81
2021/09/08 06:11:41;;;;;;;10.68;2.88;;;20.50;99.90;;;;;;5053822;28;20377;-81
2021/09/08 06:14:07;;;;;;;8.18;2.47;;;20.50;99.90;;;;;;5053360;28;20524;-81
2021/09/08 06:16:33;;;;;;;8.20;2.50;;;20.60;99.90;;;;;;5053279;28;20013;-81
2021/09/08 06:18:58;;;;;;;11.50;2.67;;;20.50;99.90;;;;;;5053319;28;20094;-81
2021/09/08 06:21:24;;;;;;;11.25;2.60;;;20.30;99.90;;;;;;5053207;28;20024;-81
2021/09/08 06:23:50;;;;;;;6.78;2.63;;;20.50;99.90;;;;;;5053189;28;20028;-80
2021/09/08 06:26:16;;;;;;;9.43;2.50;;;20.30;99.90;;;;;;5053142;28;20025;-80
2021/09/08 06:28:41;;;;;;;10.60;2.60;;;20.50;99.90;;;;;;5053132;28;20033;-81
2021/09/08 06:31:07;;;;;;;11.60;2.58;;;20.00;99.90;;;;;;5053226;28;20021;-81
2021/09/08 06:33:33;;;;;;;10.48;2.60;;;20.10;99.90;;;;;;5053124;28;20025;-80
2021/09/08 06:35:58;;;;;;;;;;;19.60;99.90;;;;;;5053491;28;20485;-81
2021/09/08 06:38:24;;;;;;;6.80;2.20;;;19.80;99.90;;;;;;5053016;28;19905;-80
2021/09/08 06:40:51;;;;;;;8.55;2.55;;;20.00;99.90;;;;;;5052985;28;20075;-81
2021/09/08 06:43:17;;;;;;;12.63;2.70;;;20.00;99.90;;;;;;5051746;28;20013;-80
2021/09/08 06:45:43;;;;;;;6.85;2.40;;;19.80;99.90;;;;;;5053100;28;20039;-81
2021/09/08 06:48:08;;;;;;;;;;;19.90;99.90;;;;;;5052134;28;20025;-81
2021/09/08 06:50:34;;;;;;;8.48;2.33;;;19.80;99.90;;;;;;5051692;28;19954;-80
2021/09/08 06:53:00;;;;;;;12.82;3.15;;;20.20;99.90;;;;;;5052836;28;20025;-81
2021/09/08 06:55:26;;;;;;;9.90;3.08;;;20.00;99.90;;;;;;5052931;28;20139;-80
2021/09/08 06:57:52;;;;;;;7.78;2.50;;;19.40;99.90;;;;;;5051631;28;20116;-80
2021/09/08 07:00:18;;;;;;;10.80;3.00;;;19.80;99.90;;;;;;5053028;28;20434;-80
2021/09/08 07:02:43;;;;;;;10.10;2.90;;;20.00;99.90;;;;;;5052837;28;20025;-80
2021/09/08 07:05:09;;;;;;;9.13;2.50;;;20.00;99.90;;;;;;5052568;28;20175;-81
2021/09/08 07:07:35;;;;;;;9.40;2.60;;;20.00;99.90;;;;;;5055548;28;20029;-80
2021/09/08 07:10:01;;;;;;;9.55;3.10;;;20.20;99.90;;;;;;5056846;28;20025;-80
2021/09/08 07:12:27;;;;;;;7.40;2.30;;;20.30;99.90;;;;;;5056574;28;20025;-81
2021/09/08 07:14:52;;;;;;;8.93;2.95;;;20.40;99.90;;;;;;5056690;28;20028;-81
2021/09/08 07:17:19;;;;;;;8.02;2.60;;;20.30;99.90;;;;;;5056486;28;20469;-81
2021/09/08 07:19:45;;;;;;;10.30;2.58;;;20.30;99.90;;;;;;5055233;28;20029;-81
2021/09/08 07:22:15;;;;;;;10.05;2.40;;;20.30;99.90;;;;;;5056666;28;20098;-81
2021/09/08 07:24:41;;;;;;;8.20;2.70;;;20.50;99.90;;;;;;5056388;28;20036;-81
2021/09/08 07:27:08;;;;;;;9.75;3.03;;;20.70;99.90;;;;;;5056606;28;20116;-81
2021/09/08 07:29:34;;;;;;;6.22;2.55;;;20.50;99.90;;;;;;5056707;28;20017;-81
2021/09/08 07:32:00;;;;;;;8.27;2.60;;;20.40;99.90;;;;;;5054827;28;20032;-80
2021/09/08 07:34:26;;;;;;;8.40;3.00;;;20.10;99.90;;;;;;5056314;28;20021;-81
2021/09/08 07:36:52;;;;;;;10.30;2.67;;;20.10;99.90;;;;;;5054917;28;20025;-81
2021/09/08 07:39:18;;;;;;;11.50;2.90;;;20.50;99.90;;;;;;5056172;28;20021;-81
2021/09/08 07:41:44;;;;;;;10.20;2.85;;;20.60;99.90;;;;;;5056103;28;20397;-81
2021/09/08 07:44:10;;;;;;;6.03;2.55;;;20.30;99.90;;;;;;5054747;28;20060;-80
2021/09/08 07:46:36;;;;;;;10.73;3.42;;;20.50;99.90;;;;;;5054640;28;20025;-78
2021/09/08 07:49:02;;;;;;;6.28;2.70;;;20.40;99.90;;;;;;5055969;28;20079;-78
2021/09/08 07:51:28;;;;;;;7.85;2.40;;;20.40;99.90;;;;;;5056100;28;20064;-78
2021/09/08 07:53:57;;;;;;;8.43;3.40;;;20.70;99.90;;;;;;5055915;28;20064;-79
2021/09/08 07:56:23;;;;;;;7.03;3.08;;;20.20;99.90;;;;;;5056005;28;20104;-79
2021/09/08 07:58:48;;;;;;;7.95;2.83;;;20.10;99.90;;;;;;5056137;28;20140;-79
2021/09/08 08:01:14;;;;;;;7.63;2.80;;;20.50;99.90;;;;;;5055792;28;20489;-79
2021/09/08 08:03:40;;;;;;;12.02;2.80;;;20.50;99.90;;;;;;5055662;28;20501;-79
2021/09/08 08:06:05;;;;;;;7.82;3.83;;;20.70;99.90;;;;;;5055603;28;20118;-78
2021/09/08 08:08:31;;;;;;;12.13;3.35;;;20.40;99.90;;;;;;5055592;28;20524;-79
2021/09/08 08:10:57;;;;;;;8.23;2.90;;;20.00;99.90;;;;;;5055600;28;20025;-79
2021/09/08 08:13:23;;;;;;;8.38;2.92;;;20.30;99.90;;;;;;5054208;28;20017;-79
2021/09/08 08:15:48;;;;;;;8.30;2.72;;;20.10;99.90;;;;;;5054113;28;20096;-79
2021/09/08 08:18:14;;;;;;;7.38;2.80;;;20.50;99.90;;;;;;5054535;28;20053;-79
2021/09/08 08:20:40;;;;;;;8.27;2.90;;;21.60;99.90;;;;;;5055927;28;20021;-79
2021/09/08 08:23:06;;;;;;;8.95;2.83;;;22.90;99.90;;;;;;5055329;28;20029;-80
2021/09/08 08:25:32;;;;;;;9.73;3.33;;;25.50;99.90;;;;;;5055205;28;20025;-80
2021/09/08 08:28:01;;;;;;;9.05;2.65;;;27.50;99.90;;;;;;5055460;28;20060;-80
2021/09/08 08:30:28;;;;;;;9.55;2.90;;;29.00;99.50;;;;;;5055602;28;20092;-80
2021/09/08 08:32:54;;;;;;;11.65;3.65;;;28.70;98.80;;;;;;5055228;28;20053;-80
2021/09/08 08:35:19;;;;;;;10.35;2.72;;;29.20;98.00;;;;;;5055164;28;20048;-80
2021/09/08 08:37:46;;;;;;;8.70;2.75;;;30.70;95.60;;;;;;5053817;28;20394;-80
2021/09/08 08:40:13;;;;;;;7.38;2.85;;;32.10;92.80;;;;;;5055264;28;20021;-81
2021/09/08 08:42:39;;;;;;;10.20;3.05;;;31.70;91.10;;;;;;5055103;28;20031;-79
2021/09/08 08:45:06;;;;;;;10.27;3.42;;;32.10;90.70;;;;;;5054928;28;20074;-81
2021/09/08 08:47:33;;;;;;;9.10;3.47;;;33.10;86.30;;;;;;5055119;28;20037;-80
2021/09/08 08:49:59;;;;;;;6.78;2.90;;;32.50;85.40;;;;;;5053529;28;20382;-81
2021/09/08 08:52:26;;;;;;;10.10;3.28;;;31.60;90.60;;;;;;5053416;28;20024;-80
2021/09/08 08:54:52;;;;;;;8.27;3.50;;;33.70;86.40;;;;;;5053431;28;20144;-80
2021/09/08 08:57:19;;;;;;;8.95;4.00;;;33.10;83.70;;;;;;5054788;28;20021;-81
2021/09/08 08:59:46;;;;;;;9.45;3.38;;;30.70;85.70;;;;;;5054731;28;20031;-80
2021/09/08 09:02:22;;;;;;;9.93;3.15;;;29.20;92.60;;;;;;5054538;28;20025;-80
2021/09/08 09:04:54;;;;;;;9.27;3.10;;;28.40;95.30;;;;;;5054515;28;20125;-80
2021/09/08 09:07:41;;;;;;;9.63;3.42;;;28.60;95.50;;;;;;5054652;28;20032;-79
2021/09/08 09:10:13;;;;;;;11.10;3.67;;;27.40;96.40;;;;;;5054545;28;20078;-80
2021/09/08 09:12:44;;;;;;;7.85;2.95;;;28.40;97.40;;;;;;5054370;28;20040;-80
2021/09/08 09:15:12;;;;;;;8.85;3.38;;;30.00;95.40;;;;;;5052792;28;20024;-80
2021/09/08 09:17:40;;;;;;;13.32;4.38;;;28.80;95.90;;;;;;5053010;28;20044;-80
2021/09/08 09:20:09;;;;;;;9.63;3.65;;;30.20;92.80;;;;;;5054288;28;20448;-80
2021/09/08 09:22:49;;;;;;;9.40;2.92;;;32.00;92.80;;;;;;5054076;28;20057;-79
2021/09/08 09:25:18;;;;;;;9.77;4.47;;;31.20;90.00;;;;;;5054406;28;20444;-80
2021/09/08 09:27:49;;;;;;;10.00;3.60;;;28.50;93.00;;;;;;5052835;28;20025;-80
2021/09/08 09:30:21;;;;;;;8.82;3.20;;;28.10;95.50;;;;;;5053964;28;20029;-79
2021/09/08 09:32:48;;;;;;;10.57;3.28;;;32.30;92.40;;;;;;5052671;28;20029;-80
2021/09/08 09:35:26;;;;;;;7.63;2.90;;;35.50;79.50;;;;;;5054091;28;20025;-80
2021/09/08 09:37:53;;;;;;;9.45;2.92;;;31.60;82.00;;;;;;5052433;28;20033;-80
2021/09/08 09:40:32;;;;;;;9.45;3.00;;;29.80;91.80;;;;;;5052585;28;20017;-80
2021/09/08 09:43:08;;;;;;;8.68;3.50;;;29.70;92.30;;;;;;5052300;28;20025;-80
2021/09/08 09:45:40;;;;;;;8.68;3.28;;;27.20;95.20;;;;;;5054226;28;20021;-80
2021/09/08 09:48:07;;;;;;;9.35;3.13;;;27.10;98.30;;;;;;5053761;28;20109;-79
2021/09/08 09:50:34;;;;;;;8.23;3.50;;;27.90;97.30;;;;;;5053902;28;20079;-79
2021/09/08 09:53:00;;;;;;;13.05;3.60;;;27.60;97.10;;;;;;5052342;28;20393;-79
2021/09/08 09:55:26;;;;;;;10.55;3.75;;;26.90;98.50;;;;;;5053600;28;20044;-80
2021/09/08 09:57:53;;;;;;;7.50;3.10;;;27.30;98.00;;;;;;5052303;28;20025;-80
2021/09/08 10:00:19;;;;;;;9.57;3.58;;;27.50;97.90;;;;;;5053820;28;20009;-80
2021/09/08 10:02:46;;;;;;;9.85;3.10;;;26.60;97.80;;;;;;5053489;28;20025;-79
2021/09/08 10:05:14;;;;;;;11.63;3.55;;;27.90;98.20;;;;;;5053338;28;20048;-80
2021/09/08 10:07:40;;;;;;;9.07;3.08;;;26.90;97.60;;;;;;5052169;28;20040;-80
2021/09/08 10:10:19;;;;;;;8.13;3.05;;;27.20;98.40;;;;;;5053663;28;20025;-80
2021/09/08 10:12:52;;;;;;;8.43;2.97;;;28.50;96.50;;;;;;5053461;28;20029;-80
2021/09/08 10:15:19;;;;;;;24.38;3.40;;;29.50;94.10;;;;;;5051825;28;20021;-81
2021/09/08 10:17:47;;;;;;;7.65;2.90;;;33.70;88.50;;;;;;5052038;28;20025;-81
2021/09/08 10:20:23;;;;;;;10.63;3.63;;;38.00;69.60;;;;;;5051982;28;20020;-82
2021/09/08 10:22:50;;;;;;;7.70;3.85;;;41.30;59.50;;;;;;5051723;28;20037;-82
2021/09/08 10:25:22;;;;;;;6.20;3.58;;;41.60;51.70;;;;;;5051857;28;20017;-82
2021/09/08 10:27:55;;;;;;;7.30;3.10;;;42.20;51.80;;;;;;5053228;28;20047;-82
2021/09/08 10:30:25;;;;;;;10.23;2.90;;;37.00;53.80;;;;;;5053295;28;20029;-81
2021/09/08 10:32:54;;;;;;;5.80;2.50;;;34.70;63.70;;;;;;5053098;28;20424;-80
2021/09/08 10:35:21;;;;;;;9.15;2.78;;;33.90;66.20;;;;;;5051788;28;20025;-80
2021/09/08 10:37:52;;;;;;;7.45;2.90;;;37.20;59.30;;;;;;5051812;28;20032;-80
2021/09/08 10:40:21;;;;;;;9.48;3.78;;;38.30;57.80;;;;;;5051534;28;20025;-82
2021/09/08 10:42:58;;;;;;;9.63;4.15;;;43.40;50.80;;;;;;5056390;28;20075;-81
2021/09/08 10:45:31;;;;;;;10.38;4.38;;;40.20;50.60;;;;;;5057150;28;20025;-81
2021/09/08 10:47:59;;;;;;;9.18;3.70;;;39.90;50.30;;;;;;5057375;28;20021;-82
2021/09/08 10:50:44;;;;;;;7.28;3.00;;;38.60;51.00;;;;;;5057152;28;20024;-81
2021/09/08 10:53:16;;;;;;;8.57;4.03;;;37.90;57.20;;;;;;5056519;28;20370;-81
2021/09/08 10:55:47;;;;;;;13.02;4.93;;;39.70;52.30;;;;;;5055738;28;20515;-82
2021/09/08 10:58:13;;;;;;;8.32;5.10;;;41.30;49.20;;;;;;5057209;28;20072;-82
2021/09/08 11:00:43;;;;;;;9.35;3.63;;;43.20;48.10;;;;;;5056961;28;20021;-81
2021/09/08 11:03:27;;;;;;;11.38;3.42;;;41.10;50.50;;;;;;5056785;28;20025;-81
2021/09/08 11:05:57;;;;;;;16.83;4.10;;;39.70;51.80;;;;;;5056285;28;20079;-80
2021/09/08 11:08:30;;;;;;;8.57;3.03;;;38.40;52.30;;;;;;5056681;28;20032;-81
2021/09/08 11:11:09;;;;;;;7.47;2.60;;;36.60;55.90;;;;;;5056905;28;20025;-80
2021/09/08 11:13:36;;;;;;;7.07;3.10;;;35.80;57.70;;;;;;5055137;28;20059;-80
2021/09/08 11:16:13;;;;;;;7.35;2.70;;;37.30;58.50;;;;;;5055308;28;20021;-80
2021/09/08 11:18:38;;;;;;;6.72;2.75;;;36.90;55.60;;;;;;5056583;28;20394;-80
2021/09/08 11:21:05;;;;;;;8.75;2.92;;;34.80;59.00;;;;;;5055177;28;20111;-80
2021/09/08 11:23:32;;;;;;;5.40;2.42;;;33.60;61.20;;;;;;5055225;28;20025;-80
2021/09/08 11:26:10;;;;;;;6.65;2.67;;;33.00;64.60;;;;;;5056298;28;20025;-80
2021/09/08 11:28:37;;;;;;;8.95;2.80;;;32.60;66.10;;;;;;5056505;28;20021;-80
2021/09/08 11:31:18;;;;;;;8.57;2.72;;;33.30;67.50;;;;;;5056289;28;20029;-80
2021/09/08 11:33:44;;;;;;;8.38;2.90;;;36.10;63.20;;;;;;5056599;28;20028;-81
2021/09/08 11:36:18;;;;;;;7.45;3.13;;;36.30;58.70;;;;;;5056305;28;20029;-81
2021/09/08 11:38:48;;;;;;;;;;;38.40;57.10;;;;;;5056667;28;20389;-80
2021/09/08 11:41:16;;;;;;;5.82;2.47;;;36.70;56.80;;;;;;5056301;28;19908;-80
2021/09/08 11:43:49;;;;;;;8.73;2.75;;;34.10;60.20;;;;;;5054766;28;20402;-80
2021/09/08 11:46:27;;;;;;;5.30;2.53;;;34.80;60.90;;;;;;5054748;28;20052;-80
2021/09/08 11:49:01;;;;;;;5.90;2.50;;;38.00;58.40;;;;;;5054663;28;20481;-81
2021/09/08 11:51:26;;;;;;;6.45;3.22;;;40.80;52.00;;;;;;5054341;28;20071;-81
2021/09/08 11:53:54;;;;;;;5.40;2.60;;;42.20;48.10;;;;;;5055065;28;20072;-81
2021/09/08 11:56:25;;;;;;;7.47;2.30;;;37.50;52.80;;;;;;5055882;28;20029;-80
2021/09/08 11:58:57;;;;;;;7.32;2.40;;;34.20;58.50;;;;;;5055822;28;20128;-80
2021/09/08 12:01:23;;;;;;;5.70;3.10;;;35.90;59.90;;;;;;5055733;28;20033;-81
2021/09/08 12:03:55;;;;;;;6.88;3.33;;;42.60;52.30;;;;;;5055510;28;20028;-81
2021/09/08 12:06:22;;;;;;;8.02;4.68;;;43.00;51.30;;;;;;5055807;28;20086;-81
2021/09/08 12:08:55;;;;;;;7.88;4.63;;;47.00;45.70;;;;;;5055719;28;20017;-81
2021/09/08 12:11:45;;;;;;;7.65;3.90;;;43.40;43.40;;;;;;5053970;28;20025;-81
2021/09/08 12:14:23;;;;;;;6.20;3.40;;;42.50;47.20;;;;;;5054000;28;20025;-81
2021/09/08 12:16:56;;;;;;;7.20;3.13;;;43.60;45.60;;;;;;5053930;28;20033;-80
2021/09/08 12:19:34;;;;;;;6.53;2.65;;;40.00;48.30;;;;;;5055339;28;20031;-80
2021/09/08 12:22:27;;;;;;;8.15;3.28;;;37.80;50.80;;;;;;5055659;28;20082;-81
2021/09/08 12:24:58;;;;;;;6.90;3.10;;;43.80;47.50;;;;;;5055437;28;20017;-80
2021/09/08 12:27:43;;;;;;;6.47;2.83;;;40.70;45.60;;;;;;5053746;28;20056;-80
2021/09/08 12:30:16;;;;;;;7.80;2.80;;;37.80;52.10;;;;;;5053676;28;20048;-80
2021/09/08 12:32:44;;;;;;;9.40;2.97;;;38.50;52.10;;;;;;5053906;28;20500;-80
2021/09/08 12:35:11;;;;;;;6.88;2.50;;;37.20;50.70;;;;;;5055149;28;20029;-80
2021/09/08 12:37:37;;;;;;;7.05;2.53;;;36.90;52.60;;;;;;5053784;28;20440;-79
2021/09/08 12:40:13;;;;;;;7.13;2.50;;;34.40;56.60;;;;;;5054915;28;20025;-80
2021/09/08 12:42:42;;;;;;;7.60;2.40;;;33.50;58.40;;;;;;5055008;28;20056;-80
2021/09/08 12:45:09;;;;;;;6.20;2.22;;;32.20;57.90;;;;;;5055040;28;20013;-79
2021/09/08 12:47:37;;;;;;;5.65;2.30;;;30.60;61.60;;;;;;5054130;28;20419;-80